Time;durP1;ratioP1;P1;durP2;ratioP2;P2;SDS_P1;SDS_P2;PMS_P1;PMS_P2;Temp;Humidity;BMP_temperature;BMP_pressure;BME280_temperature;BME280_humidity;BME280_pressure;Samples;Min_cycle;Max_cycle;Signal;HPM_P1;HPM_P2
2021/01/19 00:00:34;;;;;;;;;;;;;;;-6.16;69.29;97328.65;1706917;81;25825;-80
2021/01/19 00:03:03;;;;;;;;;;;;;;;-6.10;69.32;97324.72;1739143;81;26201;-80
2021/01/19 00:05:30;;;;;;;;;;;;;;;-6.06;69.40;97325.72;1721635;80;25804;-81
2021/01/19 00:07:57;;;;;;;;;;;;;;;-5.98;69.53;97325.15;1728772;80;25856;-81
2021/01/19 00:10:24;;;;;;;;;;;;;;;-5.91;69.67;97319.80;1715296;81;26035;-81
2021/01/19 00:12:51;;;;;;;;;;;;;;;-5.84;69.73;97321.85;1755285;81;25859;-81
2021/01/19 00:15:18;;;;;;;;;;;;;;;-5.81;69.81;97320.80;1716818;81;27554;-80
2021/01/19 00:17:45;;;;;;;;;;;;;;;-5.82;69.82;97317.80;1706820;81;25716;-81
2021/01/19 00:20:12;;;;;;;;;;;;;;;-5.78;69.95;97309.19;1706937;81;25579;-79
2021/01/19 00:22:39;;;;;;;;;;;;;;;-5.77;70.10;97311.70;1739812;80;26648;-81
2021/01/19 00:25:07;;;;;;;;;;;;;;;-5.76;70.19;97305.50;1728737;81;26371;-80
2021/01/19 00:27:34;;;;;;;;;;;;;;;-5.72;70.34;97308.28;1752124;80;27615;-80
2021/01/19 00:30:01;;;;;;;;;;;;;;;-5.71;70.31;97301.23;1726241;81;25813;-80
2021/01/19 00:32:28;;;;;;;;;;;;;;;-5.72;70.28;97304.33;1721925;81;25766;-80
2021/01/19 00:34:56;;;;;;;;;;;;;;;-5.70;70.32;97303.75;1738779;81;43800;-80
2021/01/19 00:37:23;;;;;;;;;;;;;;;-5.65;70.38;97302.91;1735871;81;25870;-81
2021/01/19 00:39:50;;;;;;;;;;;;;;;-5.64;70.43;97300.65;1753615;80;27480;-79
2021/01/19 00:42:17;;;;;;;;;;;;;;;-5.67;70.50;97302.19;1722879;81;26311;-80
2021/01/19 00:44:44;;;;;;;;;;;;;;;-5.65;70.63;97295.02;1727075;81;25750;-79
2021/01/19 00:47:11;;;;;;;;;;;;;;;-5.65;70.49;97290.23;1741940;80;26055;-79
2021/01/19 00:49:38;;;;;;;;;;;;;;;-5.65;70.53;97295.50;1731322;81;25695;-80
2021/01/19 00:52:05;;;;;;;;;;;;;;;-5.60;70.52;97295.53;1716893;81;28818;-80
2021/01/19 00:54:32;;;;;;;;;;;;;;;-5.60;70.47;97285.02;1713483;79;26395;-80
2021/01/19 00:56:59;;;;;;;;;;;;;;;-5.57;70.59;97280.84;1758891;80;25767;-80
2021/01/19 00:59:26;;;;;;;;;;;;;;;-5.60;70.60;97282.86;1758804;80;27083;-80
2021/01/19 01:01:54;;;;;;;;;;;;;;;-5.60;70.67;97283.70;1758922;80;25288;-79
2021/01/19 01:04:21;;;;;;;;;;;;;;;-5.59;70.79;97266.13;1758876;80;28641;-80
2021/01/19 01:06:54;;;;;;;;;;;;;;;-5.56;70.88;97264.12;1758795;80;26509;-79
2021/01/19 01:09:21;;;;;;;;;;;;;;;-5.54;70.95;97258.72;1758619;79;25730;-80
2021/01/19 01:11:48;;;;;;;;;;;;;;;-5.47;71.29;97250.27;1758965;80;26716;-80
2021/01/19 01:14:15;;;;;;;;;;;;;;;-5.36;71.40;97252.55;1779115;79;26317;-80
2021/01/19 01:16:42;;;;;;;;;;;;;;;-5.27;71.50;97257.10;1773625;80;27554;-80
2021/01/19 01:19:10;;;;;;;;;;;;;;;-5.23;71.50;97251.50;1784417;80;26396;-80
2021/01/19 01:21:37;;;;;;;;;;;;;;;-5.20;71.50;97253.06;1759040;80;25893;-80
2021/01/19 01:24:07;;;;;;;;;;;;;;;-5.15;71.55;97250.42;1759053;80;27069;-80
2021/01/19 01:26:34;;;;;;;;;;;;;;;-5.13;71.46;97239.78;1758604;80;25776;-79
2021/01/19 01:29:02;;;;;;;;;;;;;;;-5.06;71.51;97240.97;1758826;80;27727;-79
2021/01/19 01:31:29;;;;;;;;;;;;;;;-5.06;71.52;97237.02;1767065;80;25806;-80
2021/01/19 01:33:56;;;;;;;;;;;;;;;-5.07;71.42;97239.80;1783753;78;25772;-79
2021/01/19 01:36:23;;;;;;;;;;;;;;;-5.09;71.42;97235.48;1755050;80;26638;-79
2021/01/19 01:38:50;;;;;;;;;;;;;;;-5.07;71.42;97230.08;1775189;79;25723;-79
2021/01/19 01:41:19;;;;;;;;;;;;;;;-5.03;71.48;97217.05;1753675;80;26747;-79
2021/01/19 01:43:47;;;;;;;;;;;;;;;-4.98;71.45;97218.02;1745609;80;26356;-80
2021/01/19 01:46:15;;;;;;;;;;;;;;;-4.91;71.51;97216.09;1751029;78;25800;-80
2021/01/19 01:48:44;;;;;;;;;;;;;;;-4.84;71.52;97214.66;1758349;80;25891;-80
2021/01/19 01:51:12;;;;;;;;;;;;;;;-4.76;71.51;97210.94;1746039;80;25747;-80
2021/01/19 01:53:42;;;;;;;;;;;;;;;-4.68;71.54;97208.16;1745663;78;28484;-79
2021/01/19 01:56:11;;;;;;;;;;;;;;;-4.63;71.40;97202.06;1748787;78;25715;-80
2021/01/19 01:58:38;;;;;;;;;;;;;;;-4.58;71.37;97206.46;1771026;80;25710;-79
2021/01/19 02:01:06;;;;;;;;;;;;;;;-4.56;71.29;97204.55;1745791;80;25763;-79
2021/01/19 02:03:33;;;;;;;;;;;;;;;-4.49;71.31;97205.75;1745981;78;26275;-79
2021/01/19 02:06:00;;;;;;;;;;;;;;;-4.48;71.26;97195.57;1772308;79;27838;-80
2021/01/19 02:08:30;;;;;;;;;;;;;;;-4.48;71.26;97200.36;1783357;78;26490;-79
2021/01/19 02:11:35;;;;;;;;;;;;;;;-4.48;71.28;97206.11;1779914;79;25735;-79
2021/01/19 02:14:20;;;;;;;;;;;;;;;-4.47;71.35;97203.83;1781602;80;25890;-79
2021/01/19 02:17:07;;;;;;;;;;;;;;;-4.42;71.38;97201.17;1756051;78;25901;-80
2021/01/19 02:19:58;;;;;;;;;;;;;;;-4.35;71.45;97196.26;1763133;80;26748;-80
2021/01/19 02:22:49;;;;;;;;;;;;;;;-4.29;71.43;97197.06;1776786;79;25728;-79
2021/01/19 02:25:36;;;;;;;;;;;;;;;-4.25;71.30;97188.43;1752848;80;25710;-79
2021/01/19 02:28:23;;;;;;;;;;;;;;;-4.23;71.28;97186.03;1761094;80;25822;-79
2021/01/19 02:31:24;;;;;;;;;;;;;;;-4.22;71.27;97181.57;1763797;80;25691;-79
2021/01/19 02:34:16;;;;;;;;;;;;;;;-4.20;71.44;97187.55;1750391;80;28501;-79
2021/01/19 02:37:12;;;;;;;;;;;;;;;-4.18;71.26;97177.25;1782225;79;25841;-80
2021/01/19 02:39:51;;;;;;;;;;;;;;;-4.24;71.54;97175.13;1780729;80;26200;-79
2021/01/19 02:42:25;;;;;;;;;;;;;;;-4.19;71.82;97172.94;1753736;80;26330;-78
2021/01/19 02:44:54;;;;;;;;;;;;;;;-4.15;71.95;97177.48;1760476;80;26018;-80
2021/01/19 02:47:21;;;;;;;;;;;;;;;-4.07;72.11;97170.61;1764487;79;27701;-80
2021/01/19 02:49:48;;;;;;;;;;;;;;;-3.99;72.19;97171.31;1761797;80;25680;-79
2021/01/19 02:52:16;;;;;;;;;;;;;;;-3.96;72.29;97164.92;1758914;78;25833;-80
2021/01/19 02:54:44;;;;;;;;;;;;;;;-3.89;72.52;97165.63;1764286;80;25893;-80
2021/01/19 02:57:30;;;;;;;;;;;;;;;-3.82;72.58;97164.62;1745981;80;25705;-79
2021/01/19 03:00:04;;;;;;;;;;;;;;;-3.76;72.76;97168.08;1748418;80;27486;-79
2021/01/19 03:02:34;;;;;;;;;;;;;;;-3.71;72.93;97165.39;1764853;80;25763;-79
2021/01/19 03:05:02;;;;;;;;;;;;;;;-3.67;72.94;97164.17;1772030;80;25765;-79
2021/01/19 03:07:31;;;;;;;;;;;;;;;-3.60;73.02;97164.48;1773668;80;25927;-79
2021/01/19 03:09:59;;;;;;;;;;;;;;;-3.54;73.05;97163.98;1746594;80;25349;-79
2021/01/19 03:12:26;;;;;;;;;;;;;;;-3.49;73.15;97159.13;1745783;80;28564;-79
2021/01/19 03:14:54;;;;;;;;;;;;;;;-3.46;73.16;97160.20;1764456;80;25815;-80
2021/01/19 03:17:21;;;;;;;;;;;;;;;-3.42;73.04;97151.06;1745868;80;26207;-80
2021/01/19 03:19:49;;;;;;;;;;;;;;;-3.39;73.13;97149.48;1745963;80;25824;-78
2021/01/19 03:22:16;;;;;;;;;;;;;;;-3.37;73.19;97143.56;1764548;80;25805;-79
2021/01/19 03:24:43;;;;;;;;;;;;;;;-3.31;73.28;97145.69;1757393;79;28233;-79
2021/01/19 03:27:10;;;;;;;;;;;;;;;-3.26;73.28;97141.35;1762730;80;26126;-79
2021/01/19 03:29:37;;;;;;;;;;;;;;;-3.18;73.30;97142.00;1763504;80;25795;-80
2021/01/19 03:32:04;;;;;;;;;;;;;;;-3.16;73.24;97138.74;1772204;79;26775;-80
2021/01/19 03:34:33;;;;;;;;;;;;;;;-3.15;73.22;97143.06;1756740;80;25647;-79
2021/01/19 03:37:01;;;;;;;;;;;;;;;-3.15;73.28;97141.73;1764529;78;27497;-79
2021/01/19 03:39:28;;;;;;;;;;;;;;;-3.11;73.33;97143.13;1745856;80;25830;-80
2021/01/19 03:41:55;;;;;;;;;;;;;;;-3.08;73.35;97142.86;1745901;80;25747;-79
2021/01/19 03:44:22;;;;;;;;;;;;;;;-3.06;73.32;97134.33;1745807;80;26770;-79
2021/01/19 03:46:49;;;;;;;;;;;;;;;-3.05;73.33;97142.61;1745903;80;25721;-79
2021/01/19 03:49:16;;;;;;;;;;;;;;;-3.02;73.35;97141.03;1745759;80;28472;-79
2021/01/19 03:51:43;;;;;;;;;;;;;;;-2.99;73.35;97139.41;1753132;79;25821;-80
2021/01/19 03:54:10;;;;;;;;;;;;;;;-2.99;73.32;97134.97;1774030;80;25335;-79
2021/01/19 03:56:37;;;;;;;;;;;;;;;-2.97;73.36;97137.48;1758894;80;26866;-79
2021/01/19 03:59:04;;;;;;;;;;;;;;;-2.96;73.35;97133.39;1758963;80;25430;-79
2021/01/19 04:01:31;;;;;;;;;;;;;;;-2.94;73.39;97133.26;1758976;80;27699;-79
2021/01/19 04:03:58;;;;;;;;;;;;;;;-2.90;73.43;97134.67;1778765;80;26463;-79
2021/01/19 04:06:25;;;;;;;;;;;;;;;-2.88;73.47;97135.83;1758899;80;25870;-79
2021/01/19 04:08:52;;;;;;;;;;;;;;;-2.88;73.49;97137.98;1758925;80;25844;-80
2021/01/19 04:11:19;;;;;;;;;;;;;;;-2.88;73.54;97135.83;1759026;79;25816;-80
2021/01/19 04:13:46;;;;;;;;;;;;;;;-2.90;73.59;97137.31;1758871;80;28363;-80
2021/01/19 04:16:15;;;;;;;;;;;;;;;-2.90;73.65;97134.67;1758989;80;25796;-80
2021/01/19 04:18:42;;;;;;;;;;;;;;;-2.87;73.63;97138.34;1761121;80;25893;-80
2021/01/19 04:21:09;;;;;;;;;;;;;;;-2.87;73.86;97135.70;1776743;80;25871;-80
2021/01/19 04:23:37;;;;;;;;;;;;;;;-2.88;73.80;97139.30;1778983;79;25878;-80
2021/01/19 04:26:04;;;;;;;;;;;;;;;-2.86;73.90;97142.66;1787807;79;27590;-80
2021/01/19 04:28:31;;;;;;;;;;;;;;;-2.88;73.98;97136.66;1769905;80;25881;-80
2021/01/19 04:30:57;;;;;;;;;;;;;;;-2.88;73.98;97137.98;1758933;80;26297;-80
2021/01/19 04:33:24;;;;;;;;;;;;;;;-2.85;74.06;97136.41;1758868;80;26029;-81
2021/01/19 04:35:52;;;;;;;;;;;;;;;-2.83;74.09;97135.79;1759096;80;26363;-80
2021/01/19 04:38:19;;;;;;;;;;;;;;;-2.81;74.15;97132.53;1758991;80;27491;-80
2021/01/19 04:40:46;;;;;;;;;;;;;;;-2.77;74.21;97137.04;1761219;80;25894;-79
2021/01/19 04:43:16;;;;;;;;;;;;;;;-2.72;74.22;97142.28;1759724;80;25777;-79
2021/01/19 04:45:44;;;;;;;;;;;;;;;-2.69;74.25;97143.82;1750005;80;26823;-80
2021/01/19 04:48:11;;;;;;;;;;;;;;;-2.68;74.29;97138.89;1770205;80;25876;-80
2021/01/19 04:50:38;;;;;;;;;;;;;;;-2.66;74.24;97136.47;1764396;78;27493;-79
2021/01/19 04:53:06;;;;;;;;;;;;;;;-2.64;74.32;97139.78;1716554;80;25825;-81
2021/01/19 04:55:37;;;;;;;;;;;;;;;-2.64;74.37;97133.66;1745582;80;25849;-79
2021/01/19 04:58:06;;;;;;;;;;;;;;;-2.59;74.45;97134.94;1745778;80;26815;-80
2021/01/19 05:00:37;;;;;;;;;;;;;;;-2.57;74.45;97136.97;1745957;78;25303;-79
2021/01/19 05:03:13;;;;;;;;;;;;;;;-2.57;74.38;97133.00;1745762;80;27489;-80
2021/01/19 05:05:49;;;;;;;;;;;;;;;-2.57;74.41;97138.28;1745798;80;26179;-81
2021/01/19 05:08:20;;;;;;;;;;;;;;;-2.57;74.40;97134.80;1771839;80;25263;-82
2021/01/19 05:11:01;;;;;;;;;;;;;;;-2.54;74.45;97137.19;1781908;80;25854;-82
2021/01/19 05:13:52;;;;;;;;;;;;;;;-2.52;74.45;97133.89;1782805;80;25734;-82
2021/01/19 05:16:34;;;;;;;;;;;;;;;-2.48;74.48;97137.94;1769786;80;27566;-82
2021/01/19 05:19:03;;;;;;;;;;;;;;;-2.47;74.41;97137.46;1766152;79;26208;-81
2021/01/19 05:21:30;;;;;;;;;;;;;;;-2.45;74.38;97134.20;1756376;80;26324;-80
2021/01/19 05:23:57;;;;;;;;;;;;;;;-2.42;74.35;97132.12;1772231;80;25889;-81
2021/01/19 05:26:25;;;;;;;;;;;;;;;-2.42;74.34;97128.64;1781663;79;25830;-80
2021/01/19 05:28:54;;;;;;;;;;;;;;;-2.38;74.36;97140.59;1758709;80;27489;-81
2021/01/19 05:31:29;;;;;;;;;;;;;;;-2.35;74.42;97137.68;1758407;80;25723;-81
2021/01/19 05:33:59;;;;;;;;;;;;;;;-2.29;74.46;97146.36;1758680;80;25755;-81
2021/01/19 05:36:43;;;;;;;;;;;;;;;-2.22;74.47;97150.15;1758464;80;26947;-81
2021/01/19 05:39:13;;;;;;;;;;;;;;;-2.17;74.35;97147.91;1758775;80;26078;-80
2021/01/19 05:41:44;;;;;;;;;;;;;;;-2.19;74.34;97143.27;1763208;79;28451;-80
2021/01/19 05:44:14;;;;;;;;;;;;;;;-2.18;74.38;97143.63;1775010;80;26357;-79
2021/01/19 05:46:51;;;;;;;;;;;;;;;-2.15;74.38;97147.28;1758654;80;25824;-80
2021/01/19 05:49:21;;;;;;;;;;;;;;;-2.12;74.41;97141.73;1758638;80;25829;-81
2021/01/19 05:51:49;;;;;;;;;;;;;;;-2.08;74.40;97152.88;1758437;80;25670;-81
2021/01/19 05:57:06;;;;;;;;;;;;;;;-1.97;74.36;97146.95;1873918;76;26231;-81
2021/01/19 05:59:35;;;;;;;;;;;;;;;-2.01;74.27;97148.68;1839366;77;25751;-81
2021/01/19 06:02:05;;;;;;;;;;;;;;;-2.00;74.31;97151.19;1835016;77;27558;-81
2021/01/19 06:04:35;;;;;;;;;;;;;;;-2.00;74.29;97149.87;1854930;77;25791;-81
2021/01/19 06:07:03;;;;;;;;;;;;;;;-2.01;74.25;97145.55;1854827;77;25779;-82
2021/01/19 06:09:30;;;;;;;;;;;;;;;-2.00;74.27;97141.09;1854835;77;25803;-82
2021/01/19 06:11:58;;;;;;;;;;;;;;;-2.00;74.32;97145.90;1854885;77;25876;-81
2021/01/19 06:14:29;;;;;;;;;;;;;;;-1.97;74.27;97143.47;1807107;77;27547;-80
2021/01/19 06:17:13;;;;;;;;;;;;;;;-1.98;74.29;97139.98;1808593;77;26080;-80
2021/01/19 06:19:42;;;;;;;;;;;;;;;-1.97;74.30;97146.11;1822207;77;25813;-79
2021/01/19 06:22:11;;;;;;;;;;;;;;;-1.92;74.34;97147.34;1823939;77;25786;-78
2021/01/19 06:24:46;;;;;;;;;;;;;;;-1.93;74.29;97141.70;1834631;77;26271;-80
2021/01/19 06:27:24;;;;;;;;;;;;;;;;;;1854839;77;27462;-80
2021/01/19 06:30:03;;;;;;;;;;;;;;;-1.92;74.28;97142.55;1832315;77;26200;-78
2021/01/19 06:32:33;;;;;;;;;;;;;;;-1.93;74.24;97149.64;1855068;77;25700;-80
2021/01/19 06:35:23;;;;;;;;;;;;;;;-1.94;74.24;97147.16;1853764;77;26317;-79
2021/01/19 06:37:53;;;;;;;;;;;;;;;-1.96;74.30;97145.98;1855059;77;26303;-77
2021/01/19 06:40:23;;;;;;;;;;;;;;;-1.89;74.38;97148.40;1828452;77;28485;-78
2021/01/19 06:43:02;;;;;;;;;;;;;;;-1.82;74.38;97140.75;1831855;76;26129;-80
2021/01/19 06:45:31;;;;;;;;;;;;;;;-1.82;74.30;97143.39;1797485;78;25383;-82
2021/01/19 06:48:00;;;;;;;;;;;;;;;-1.81;74.30;97145.88;1795379;79;26618;-82
2021/01/19 06:50:29;;;;;;;;;;;;;;;-1.80;74.33;97144.06;1799323;78;26995;-81
2021/01/19 06:53:15;;;;;;;;;;;;;;;-1.78;74.33;97149.22;1799298;79;27532;-80
2021/01/19 06:55:48;;;;;;;;;;;;;;;-1.75;74.35;97147.62;1799039;78;25841;-82
2021/01/19 06:58:42;;;;;;;;;;;;;;;-1.73;74.43;97142.54;1793637;78;25833;-82
2021/01/19 07:01:12;;;;;;;;;;;;;;;-1.70;74.44;97146.72;1786696;79;25771;-82
2021/01/19 07:03:41;;;;;;;;;;;;;;;-1.69;74.44;97145.75;1798323;79;25815;-82
2021/01/19 07:06:10;;;;;;;;;;;;;;;-1.69;74.45;97143.10;1775655;79;27492;-82
2021/01/19 07:09:17;;;;;;;;;;;;;;;-1.67;74.51;97148.58;1783726;79;25674;-82
2021/01/19 07:12:04;;;;;;;;;;;;;;;-1.63;74.54;97153.11;1775594;79;25362;-82
2021/01/19 07:14:40;;;;;;;;;;;;;;;-1.61;74.55;97145.86;1797164;79;25353;-80
2021/01/19 07:17:18;;;;;;;;;;;;;;;-1.61;74.56;97153.80;1797209;79;25735;-82
2021/01/19 07:19:50;;;;;;;;;;;;;;;-1.61;74.60;97147.19;1778766;79;27664;-82
2021/01/19 07:22:20;;;;;;;;;;;;;;;-1.57;74.74;97145.94;1795010;79;26152;-82
2021/01/19 07:24:48;;;;;;;;;;;;;;;-1.56;74.73;97147.09;1765628;79;25932;-82
2021/01/19 07:27:18;;;;;;;;;;;;;;;-1.55;74.73;97142.63;1792076;79;26058;-82
2021/01/19 07:29:46;;;;;;;;;;;;;;;-1.55;74.76;97145.28;1781914;79;25836;-82
2021/01/19 07:32:17;;;;;;;;;;;;;;;-1.51;74.83;97144.03;1790097;79;27676;-81
2021/01/19 07:34:45;;;;;;;;;;;;;;;-1.51;74.78;97145.34;1790634;79;25791;-83
2021/01/19 07:37:12;;;;;;;;;;;;;;;-1.54;74.71;97145.63;1789673;79;25839;-81
2021/01/19 07:39:39;;;;;;;;;;;;;;;-1.52;74.77;97150.30;1789804;79;25694;-82
2021/01/19 07:42:17;;;;;;;;;;;;;;;-1.49;74.80;97148.70;1803351;79;25769;-82
2021/01/19 07:44:58;;;;;;;;;;;;;;;-1.51;74.78;97148.00;1784787;79;28374;-83
2021/01/19 07:47:37;;;;;;;;;;;;;;;-1.48;74.80;97152.53;1768702;79;25333;-82
2021/01/19 07:50:07;;;;;;;;;;;;;;;-1.46;74.74;97153.71;1781889;79;25749;-82
2021/01/19 07:52:48;;;;;;;;;;;;;;;-1.45;74.76;97151.41;1786998;79;25698;-81
2021/01/19 07:55:21;;;;;;;;;;;;;;;-1.42;74.75;97148.95;1765764;79;25728;-81
2021/01/19 07:57:53;;;;;;;;;;;;;;;-1.40;74.78;97142.53;1767472;80;27719;-81
2021/01/19 08:00:22;;;;;;;;;;;;;;;-1.37;74.75;97148.88;1769846;81;25762;-81
2021/01/19 08:02:50;;;;;;;;;;;;;;;-1.35;74.73;97146.92;1771266;81;25789;-81
2021/01/19 08:05:20;;;;;;;;;;;;;;;-1.35;74.72;97140.30;1771732;81;25818;-82
2021/01/19 08:07:47;;;;;;;;;;;;;;;-1.33;74.68;97132.22;1767927;79;25724;-81
2021/01/19 08:10:32;;;;;;;;;;;;;;;-1.31;74.70;97142.98;1769824;80;27563;-79
2021/01/19 08:13:02;;;;;;;;;;;;;;;-1.29;74.70;97145.01;1770020;80;26599;-80
2021/01/19 08:15:33;;;;;;;;;;;;;;;-1.25;74.70;97142.42;1771702;80;25344;-82
2021/01/19 08:18:03;;;;;;;;;;;;;;;-1.23;74.66;97147.09;1770345;79;25340;-81
2021/01/19 08:20:32;;;;;;;;;;;;;;;-1.24;74.62;97146.75;1771717;81;25930;-79
2021/01/19 08:23:16;;;;;;;;;;;;;;;-1.23;74.62;97146.27;1771708;79;26983;-81
2021/01/19 08:25:44;;;;;;;;;;;;;;;-1.25;74.60;97145.08;1771615;81;25700;-82
2021/01/19 08:28:13;;;;;;;;;;;;;;;-1.24;74.66;97148.56;1771708;81;25803;-82
2021/01/19 08:30:42;;;;;;;;;;;;;;;-1.22;74.79;97148.77;1770945;79;25815;-81
2021/01/19 08:33:09;;;;;;;;;;;;;;;-1.16;74.87;97142.04;1771178;81;25734;-83
2021/01/19 08:35:38;;;;;;;;;;;;;;;-1.15;74.87;97135.28;1739219;81;27684;-82
2021/01/19 08:38:05;;;;;;;;;;;;;;;-1.12;74.87;97136.80;1766869;80;25911;-82
2021/01/19 08:40:34;;;;;;;;;;;;;;;-1.17;74.84;97137.23;1771014;79;26399;-82
2021/01/19 08:43:06;;;;;;;;;;;;;;;-1.17;74.93;97142.53;1771544;79;25886;-81
2021/01/19 08:45:38;;;;;;;;;;;;;;;-1.09;75.00;97138.66;1771565;79;25814;-82
2021/01/19 08:48:06;;;;;;;;;;;;;;;-1.06;74.92;97137.53;1770486;80;27502;-83
2021/01/19 08:50:36;;;;;;;;;;;;;;;-1.03;74.93;97144.36;1771563;80;26054;-81
2021/01/19 08:53:14;;;;;;;;;;;;;;;-1.06;74.89;97142.00;1771063;80;25767;-82
2021/01/19 08:55:43;;;;;;;;;;;;;;;-1.04;74.89;97142.69;1771008;79;25909;-80
2021/01/19 08:58:18;;;;;;;;;;;;;;;-1.05;74.87;97130.42;1796983;79;26427;-82
2021/01/19 09:00:46;;;;;;;;;;;;;;;-1.02;74.90;97139.41;1797205;79;28447;-82
2021/01/19 09:03:16;;;;;;;;;;;;;;;-1.01;74.82;97131.32;1797151;79;26178;-84
2021/01/19 09:05:43;;;;;;;;;;;;;;;-1.04;74.81;97136.06;1797135;79;25772;-82
2021/01/19 09:08:16;;;;;;;;;;;;;;;-1.02;74.87;97132.30;1797119;79;25860;-84
2021/01/19 09:10:44;;;;;;;;;;;;;;;-0.96;74.93;97137.00;1777920;79;25819;-83
2021/01/19 09:13:12;;;;;;;;;;;;;;;-0.88;74.94;97137.61;1794259;79;28466;-83
2021/01/19 09:15:43;;;;;;;;;;;;;;;-0.84;74.91;97142.94;1797202;79;25635;-83
2021/01/19 09:18:13;;;;;;;;;;;;;;;-0.79;74.87;97138.88;1774975;79;25731;-83
2021/01/19 09:20:41;;;;;;;;;;;;;;;-0.75;74.81;97132.31;1797255;79;26077;-84
2021/01/19 09:23:15;;;;;;;;;;;;;;;-0.72;74.69;97136.46;1797278;79;26415;-80
2021/01/19 09:25:39;;;;;;;;;;;;;;;-0.71;74.61;97134.16;1768239;79;28547;-84
2021/01/19 09:28:07;;;;;;;;;;;;;;;-0.65;74.64;97136.23;1783218;79;25880;-83
2021/01/19 09:30:38;;;;;;;;;;;;;;;-0.63;74.54;97134.27;1797132;79;25831;-84
2021/01/19 09:33:11;;;;;;;;;;;;;;;-0.62;74.55;97134.62;1776484;79;25769;-83
2021/01/19 09:35:40;;;;;;;;;;;;;;;-0.59;74.50;97133.46;1781982;79;25699;-82
2021/01/19 09:38:14;;;;;;;;;;;;;;;-0.57;74.51;97131.01;1791172;79;28527;-84
2021/01/19 09:40:41;;;;;;;;;;;;;;;-0.53;74.49;97131.06;1786658;79;26104;-84
2021/01/19 09:43:14;;;;;;;;;;;;;;;-0.46;74.47;97133.94;1783242;79;25806;-81
2021/01/19 09:45:42;;;;;;;;;;;;;;;-0.42;74.34;97126.04;1787536;79;25785;-82
2021/01/19 09:48:11;;;;;;;;;;;;;;;-0.38;74.29;97124.77;1763997;79;25698;-82
2021/01/19 09:50:38;;;;;;;;;;;;;;;-0.35;74.23;97127.09;1765180;79;28462;-84
2021/01/19 09:53:05;;;;;;;;;;;;;;;-0.30;74.21;97124.00;1776057;79;26023;-84
2021/01/19 09:55:33;;;;;;;;;;;;;;;-0.29;74.12;97123.02;1797112;79;25725;-84
2021/01/19 09:58:01;;;;;;;;;;;;;;;-0.25;74.12;97124.40;1779296;79;25732;-85
2021/01/19 10:00:29;;;;;;;;;;;;;;;-0.16;74.12;97128.30;1784468;79;25683;-84
2021/01/19 10:02:56;;;;;;;;;;;;;;;-0.12;73.96;97119.03;1793974;79;28654;-83
2021/01/19 10:05:24;;;;;;;;;;;;;;;-0.07;73.92;97114.61;1787384;79;25761;-83
2021/01/19 10:07:51;;;;;;;;;;;;;;;-0.04;73.84;97116.47;1802315;79;25774;-85
2021/01/19 10:10:19;;;;;;;;;;;;;;;-0.01;73.76;97115.34;1784916;79;26453;-85
2021/01/19 10:12:47;;;;;;;;;;;;;;;0.05;73.76;97109.41;1800859;79;25805;-83
2021/01/19 10:15:16;;;;;;;;;;;;;;;0.08;73.69;97100.31;1782831;79;27759;-84
2021/01/19 10:17:43;;;;;;;;;;;;;;;0.09;73.63;97101.48;1805475;79;25793;-85
2021/01/19 10:20:15;;;;;;;;;;;;;;;0.11;73.68;97100.01;1805761;79;25809;-85
2021/01/19 10:22:46;;;;;;;;;;;;;;;0.15;73.68;97106.16;1802079;79;26446;-84
2021/01/19 10:25:16;;;;;;;;;;;;;;;0.20;73.71;97101.23;1802703;79;25889;-81
2021/01/19 10:27:45;;;;;;;;;;;;;;;0.28;73.76;97099.96;1799715;79;27498;-85
2021/01/19 10:30:13;;;;;;;;;;;;;;;0.31;73.74;97103.64;1803270;79;26220;-85
2021/01/19 10:32:49;;;;;;;;;;;;;;;0.32;73.67;97102.66;1802218;79;25760;-84
2021/01/19 10:35:33;;;;;;;;;;;;;;;0.36;73.73;97097.36;1784347;79;25815;-83
2021/01/19 10:38:02;;;;;;;;;;;;;;;0.40;73.68;97083.28;1803178;79;25971;-84
2021/01/19 10:40:30;;;;;;;;;;;;;;;0.44;73.66;97087.30;1801376;79;27464;-83
2021/01/19 10:43:04;;;;;;;;;;;;;;;0.49;73.71;97082.34;1790899;79;25828;-85
2021/01/19 10:45:32;;;;;;;;;;;;;;;0.52;73.60;97082.52;1792897;79;25774;-83
2021/01/19 10:48:01;;;;;;;;;;;;;;;0.53;73.65;97074.41;1771510;79;26491;-82
2021/01/19 10:50:30;;;;;;;;;;;;;;;0.59;73.70;97078.27;1792238;79;26041;-83
2021/01/19 10:53:04;;;;;;;;;;;;;;;0.55;73.61;97067.12;1797143;79;27546;-85
2021/01/19 10:55:32;;;;;;;;;;;;;;;0.60;73.73;97066.16;1789741;79;26536;-85
2021/01/19 10:58:02;;;;;;;;;;;;;;;0.61;73.77;97064.31;1797605;79;25837;-85
2021/01/19 11:00:32;;;;;;;;;;;;;;;0.60;73.79;97055.54;1791101;79;25815;-86
2021/01/19 11:02:59;;;;;;;;;;;;;;;0.56;73.81;97052.02;1787917;79;26373;-85
2021/01/19 11:05:27;;;;;;;;;;;;;;;0.60;73.88;97050.72;1781824;79;27496;-84
2021/01/19 11:07:56;;;;;;;;;;;;;;;0.63;74.03;97045.07;1771425;79;26488;-85
2021/01/19 11:10:25;;;;;;;;;;;;;;;0.63;74.07;97044.58;1775839;79;25772;-86
2021/01/19 11:12:53;;;;;;;;;;;;;;;0.57;74.03;97040.41;1807765;79;25590;-85
2021/01/19 11:15:20;;;;;;;;;;;;;;;0.55;74.08;97034.41;1786225;79;25859;-85
2021/01/19 11:17:51;;;;;;;;;;;;;;;0.52;74.16;97034.72;1771527;79;27559;-85
2021/01/19 11:20:19;;;;;;;;;;;;;;;0.52;74.21;97037.38;1806151;79;26117;-84
2021/01/19 11:22:48;;;;;;;;;;;;;;;0.53;74.19;97028.42;1802421;79;25778;-86
2021/01/19 11:25:16;;;;;;;;;;;;;;;0.53;74.27;97019.96;1779814;79;25937;-85
2021/01/19 11:27:43;;;;;;;;;;;;;;;0.51;74.13;97023.27;1805770;79;25748;-85
2021/01/19 11:30:11;;;;;;;;;;;;;;;0.53;74.30;97026.60;1792045;79;27710;-84
2021/01/19 11:32:38;;;;;;;;;;;;;;;0.58;74.27;97025.64;1806098;79;26323;-85
2021/01/19 11:35:06;;;;;;;;;;;;;;;0.61;74.13;97025.30;1804978;79;25742;-84
2021/01/19 11:37:33;;;;;;;;;;;;;;;0.66;74.11;97019.53;1777331;79;25822;-85
2021/01/19 11:40:00;;;;;;;;;;;;;;;0.71;74.05;97014.09;1773254;80;25907;-85
2021/01/19 11:42:27;;;;;;;;;;;;;;;0.78;73.96;97003.64;1768329;81;27661;-85
2021/01/19 11:44:54;;;;;;;;;;;;;;;0.81;73.78;97002.00;1789378;79;25721;-86
2021/01/19 11:47:21;;;;;;;;;;;;;;;0.86;73.66;96993.52;1791286;80;25844;-85
2021/01/19 11:49:50;;;;;;;;;;;;;;;0.97;73.73;96992.73;1786560;79;26319;-85
2021/01/19 11:52:19;;;;;;;;;;;;;;;1.06;73.71;96976.33;1778989;79;25771;-85
2021/01/19 11:54:47;;;;;;;;;;;;;;;1.14;73.56;96977.67;1789775;79;28476;-85
2021/01/19 11:57:14;;;;;;;;;;;;;;;1.16;73.24;96978.34;1783550;79;25758;-85
2021/01/19 11:59:41;;;;;;;;;;;;;;;1.18;73.03;96979.02;1765454;81;25702;-85
2021/01/19 12:02:08;;;;;;;;;;;;;;;1.23;73.02;96974.02;1766527;80;25755;-85
2021/01/19 12:04:35;;;;;;;;;;;;;;;1.30;72.95;96976.38;1762530;81;25734;-83
2021/01/19 12:07:03;;;;;;;;;;;;;;;1.34;72.83;96963.56;1766648;81;26699;-84
2021/01/19 12:09:30;;;;;;;;;;;;;;;1.34;72.64;96959.58;1766580;81;26239;-84
2021/01/19 12:11:57;;;;;;;;;;;;;;;1.38;72.52;96964.91;1766530;80;25706;-84
2021/01/19 12:14:25;;;;;;;;;;;;;;;1.38;72.39;96960.42;1766536;81;25837;-83
2021/01/19 12:16:53;;;;;;;;;;;;;;;1.36;72.42;96964.23;1766511;81;25691;-84
2021/01/19 12:19:20;;;;;;;;;;;;;;;1.37;72.38;96960.58;1766552;80;28461;-84
2021/01/19 12:21:49;;;;;;;;;;;;;;;1.38;72.36;96958.26;1766497;81;25746;-84
2021/01/19 12:24:17;;;;;;;;;;;;;;;1.42;72.32;96951.13;1766561;80;25747;-84
2021/01/19 12:26:45;;;;;;;;;;;;;;;1.49;72.29;96953.94;1766531;81;26399;-84
2021/01/19 12:29:13;;;;;;;;;;;;;;;1.52;72.06;96953.62;1766679;81;25730;-84
2021/01/19 12:31:40;;;;;;;;;;;;;;;1.54;72.03;96947.64;1766588;80;28930;-83
2021/01/19 12:34:08;;;;;;;;;;;;;;;1.56;71.85;96936.34;1766455;81;25822;-84
2021/01/19 12:36:35;;;;;;;;;;;;;;;1.57;71.85;96936.64;1753443;81;25770;-83
2021/01/19 12:39:04;;;;;;;;;;;;;;;1.51;71.68;96939.16;1780473;80;25856;-84
2021/01/19 12:41:33;;;;;;;;;;;;;;;1.54;71.72;96930.34;1790320;80;25699;-83
2021/01/19 12:44:01;;;;;;;;;;;;;;;1.65;71.72;96933.17;1765173;79;27704;-84
2021/01/19 12:46:28;;;;;;;;;;;;;;;1.76;71.63;96934.16;1771716;81;25755;-84
2021/01/19 12:48:56;;;;;;;;;;;;;;;1.88;71.51;96927.48;1771796;80;25723;-84
2021/01/19 12:51:25;;;;;;;;;;;;;;;2.00;71.44;96922.14;1771823;81;25520;-84
2021/01/19 12:53:53;;;;;;;;;;;;;;;2.12;71.22;96917.28;1771750;81;25805;-85
2021/01/19 12:56:20;;;;;;;;;;;;;;;2.19;71.11;96919.58;1771637;81;28846;-86
2021/01/19 12:58:48;;;;;;;;;;;;;;;2.26;71.03;96915.75;1789247;79;25781;-86
2021/01/19 13:01:15;;;;;;;;;;;;;;;2.35;70.76;96919.54;1797115;79;25778;-85
2021/01/19 13:03:42;;;;;;;;;;;;;;;2.23;70.56;96916.09;1781394;79;25796;-85
2021/01/19 13:06:10;;;;;;;;;;;;;;;2.19;70.64;96920.91;1791296;79;25825;-85
2021/01/19 13:08:38;;;;;;;;;;;;;;;2.31;70.80;96913.38;1797203;79;27367;-86